createdAt,value
2019-03-17T00:03:33.565Z,3.10
2019-03-17T00:06:16.221Z,3.17
2019-03-17T00:23:52.551Z,2.80
2019-03-17T00:26:35.985Z,2.60
2019-03-17T00:29:19.829Z,2.50
2019-03-17T00:32:04.491Z,2.50
2019-03-17T00:34:47.103Z,2.50
2019-03-17T00:37:30.537Z,2.70
2019-03-17T00:40:13.560Z,2.27
2019-03-17T00:42:56.991Z,2.40
2019-03-17T00:45:39.608Z,2.60
2019-03-17T00:48:22.226Z,2.40
2019-03-17T00:51:04.837Z,2.03
2019-03-17T00:53:49.495Z,2.50
2019-03-17T00:56:32.113Z,2.80
2019-03-17T00:59:17.085Z,2.67
2019-03-17T01:02:00.204Z,2.67
2019-03-17T01:04:42.816Z,2.53
2019-03-17T01:07:25.432Z,2.70
2019-03-17T01:10:08.862Z,2.50
2019-03-17T01:12:52.710Z,3.00
2019-03-17T01:15:35.320Z,2.67
2019-03-17T01:21:02.595Z,2.47
2019-03-17T01:23:45.215Z,2.57
2019-03-17T01:26:27.822Z,2.50
2019-03-17T01:29:10.438Z,2.83
2019-03-17T01:31:53.054Z,2.73
2019-03-17T01:34:35.663Z,2.67
2019-03-17T01:37:18.276Z,3.27
2019-03-17T01:42:43.510Z,2.90
2019-03-17T01:48:08.736Z,2.73
2019-03-17T01:50:53.413Z,2.73
2019-03-17T01:53:36.007Z,2.80
2019-03-17T01:56:18.623Z,3.20
2019-03-17T01:59:01.238Z,2.80
2019-03-17T02:01:43.850Z,2.80
2019-03-17T02:04:26.463Z,2.50
2019-03-17T02:07:09.084Z,3.30
2019-03-17T02:09:51.690Z,2.70
2019-03-17T02:12:35.947Z,2.60
2019-03-17T02:15:19.789Z,2.80
2019-03-17T02:18:04.451Z,2.70
2019-03-17T02:20:47.882Z,2.90
2019-03-17T02:23:31.721Z,3.37
2019-03-17T02:28:56.949Z,3.00
2019-03-17T02:31:39.564Z,2.37
2019-03-17T02:34:22.188Z,3.03
2019-03-17T02:39:47.428Z,2.60
2019-03-17T02:42:30.020Z,3.10
2019-03-17T02:45:14.682Z,2.70
2019-03-17T02:47:57.295Z,3.00
2019-03-17T02:50:38.680Z,3.20
2019-03-17T02:53:22.525Z,2.87
2019-03-17T02:56:05.135Z,2.80
2019-03-17T02:58:47.749Z,2.80
2019-03-17T03:01:30.368Z,2.43
2019-03-17T03:04:12.980Z,2.80
2019-03-17T03:06:55.595Z,3.07
2019-03-17T03:09:39.029Z,3.00
2019-03-17T03:12:23.687Z,3.40
2019-03-17T03:15:06.305Z,3.30
2019-03-17T03:17:49.740Z,3.40
2019-03-17T03:20:33.580Z,3.03
2019-03-17T03:23:16.190Z,3.30
2019-03-17T03:28:41.418Z,3.73
2019-03-17T03:34:12.789Z,3.73
2019-03-17T03:36:55.404Z,3.10
2019-03-17T03:39:38.024Z,3.53
2019-03-17T03:42:20.631Z,3.30
2019-03-17T03:45:03.253Z,3.13
2019-03-17T03:50:29.288Z,3.27
2019-03-17T03:53:13.136Z,3.67
2019-03-17T03:55:55.343Z,3.50
2019-03-17T03:58:39.180Z,3.50
2019-03-17T04:01:23.846Z,3.13
2019-03-17T04:04:06.466Z,3.53
2019-03-17T04:06:49.072Z,3.70
2019-03-17T04:09:32.528Z,3.33
2019-03-17T04:12:18.394Z,4.17
2019-03-17T04:15:01.007Z,3.42
2019-03-17T04:17:43.622Z,3.40
2019-03-17T04:20:26.240Z,3.50
2019-03-17T04:23:07.639Z,3.77
2019-03-17T04:25:51.461Z,3.50
2019-03-17T04:28:32.846Z,3.53
2019-03-17T04:31:16.688Z,3.70
2019-03-17T04:34:00.131Z,3.70
2019-03-17T04:36:42.758Z,3.70
2019-03-17T04:39:26.179Z,3.70
2019-03-17T04:42:10.014Z,4.00
2019-03-17T04:44:54.678Z,3.63
2019-03-17T04:47:38.108Z,3.93
2019-03-17T04:50:21.948Z,3.80
2019-03-17T04:53:04.573Z,3.90
2019-03-17T04:55:47.177Z,3.63
2019-03-17T04:58:29.793Z,3.90
2019-03-17T05:04:25.327Z,3.72
2019-03-17T05:07:07.951Z,4.00
2019-03-17T05:09:50.817Z,4.00
2019-03-17T05:12:40.957Z,3.37
2019-03-17T05:15:26.843Z,3.97
2019-03-17T05:20:56.168Z,3.50
2019-03-17T05:27:07.068Z,3.57
2019-03-17T05:30:07.500Z,4.60
2019-03-17T05:32:51.340Z,5.00
2019-03-17T05:35:35.592Z,5.50
2019-03-17T05:38:20.740Z,3.50
2019-03-17T05:41:04.102Z,1.57
2019-03-17T05:43:46.713Z,1.40
2019-03-17T05:46:29.324Z,1.40
2019-03-17T05:49:13.984Z,1.60
2019-03-17T05:51:56.596Z,1.00
2019-03-17T05:54:39.216Z,1.10
2019-03-17T05:57:21.828Z,1.10
2019-03-17T06:00:04.649Z,1.30
2019-03-17T06:02:50.290Z,1.27
2019-03-17T06:05:34.582Z,1.15
2019-03-17T06:08:17.198Z,1.13
2019-03-17T06:11:00.630Z,1.20
2019-03-17T06:13:44.471Z,1.30
2019-03-17T06:16:29.136Z,1.50
2019-03-17T06:19:11.750Z,1.47
2019-03-17T06:21:54.370Z,1.60
2019-03-17T06:24:39.028Z,1.20
2019-03-17T06:27:24.890Z,1.37
2019-03-17T06:30:09.176Z,1.57
2019-03-17T06:32:53.834Z,1.50
2019-03-17T06:35:36.441Z,1.50
2019-03-17T06:38:21.101Z,1.70
2019-03-17T06:41:04.429Z,1.60
2019-03-17T06:43:48.377Z,1.20
2019-03-17T06:46:30.991Z,1.60
2019-03-17T06:49:13.613Z,1.63
2019-03-17T06:51:56.217Z,1.80
2019-03-17T06:54:38.833Z,1.60
2019-03-17T06:57:20.217Z,1.50
2019-03-17T07:00:04.880Z,1.40
2019-03-17T07:02:48.729Z,1.33
2019-03-17T07:05:31.337Z,1.40
2019-03-17T07:08:14.816Z,1.50
2019-03-17T07:10:59.433Z,1.53
2019-03-17T07:13:42.865Z,1.83
2019-03-17T07:16:28.755Z,1.53
2019-03-17T07:27:49.518Z,1.80
2019-03-17T07:33:14.751Z,2.17
2019-03-17T07:35:58.179Z,1.80
2019-03-17T07:38:42.021Z,1.93
2019-03-17T07:41:24.853Z,2.30
2019-03-17T07:44:07.258Z,2.20
2019-03-17T07:46:49.871Z,2.60
2019-03-17T07:49:34.115Z,1.93
2019-03-17T07:52:17.960Z,2.40
2019-03-17T07:55:02.621Z,2.40
2019-03-17T07:57:47.284Z,2.47
2019-03-17T08:00:32.476Z,2.73
2019-03-17T08:03:16.604Z,2.83
2019-03-17T08:05:59.220Z,2.80
2019-03-17T08:08:41.922Z,2.80
2019-03-17T08:11:24.446Z,2.53
2019-03-17T08:14:07.062Z,2.30
2019-03-17T08:16:49.678Z,2.77
2019-03-17T08:19:32.294Z,2.53
2019-03-17T08:22:19.006Z,2.80
2019-03-17T08:25:06.534Z,2.33
2019-03-17T08:27:51.194Z,2.20
2019-03-17T08:30:35.032Z,2.00
2019-03-17T08:33:18.464Z,1.70
2019-03-17T08:36:01.086Z,1.77
2019-03-17T08:41:50.474Z,1.57
2019-03-17T08:44:33.086Z,1.70
2019-03-17T08:49:58.323Z,1.50
2019-03-17T08:52:40.928Z,2.00
2019-03-17T08:55:23.539Z,2.13
2019-03-17T08:58:09.453Z,2.00
2019-03-17T09:00:53.686Z,2.00
2019-03-17T09:03:39.176Z,2.10
2019-03-17T09:06:25.055Z,1.37
2019-03-17T09:09:09.727Z,0.97
2019-03-17T09:11:52.332Z,0.97
2019-03-17T09:14:34.948Z,1.47
2019-03-17T09:17:24.520Z,1.20
2019-03-17T09:20:10.009Z,1.60
2019-03-17T09:22:53.845Z,1.47
2019-03-17T09:25:36.460Z,1.60
2019-03-17T09:28:21.119Z,1.20
2019-03-17T09:31:07.566Z,1.33
2019-03-17T09:33:50.443Z,1.20
2019-03-17T09:36:34.257Z,1.40
2019-03-17T09:39:18.547Z,1.20
2019-03-17T09:42:03.207Z,0.90
2019-03-17T09:44:47.867Z,1.20
2019-03-17T09:47:30.577Z,1.00
2019-03-17T10:02:04.167Z,0.93
2019-03-17T10:04:49.130Z,1.07
2019-03-17T10:07:35.129Z,1.03
2019-03-17T10:10:19.800Z,1.20
2019-03-17T10:13:05.690Z,0.93
2019-03-17T10:15:48.302Z,1.00
2019-03-17T10:21:17.629Z,1.00
2019-03-17T10:24:00.232Z,1.13
2019-03-17T10:26:42.844Z,1.23
2019-03-17T10:29:25.460Z,1.30
2019-03-17T10:32:08.071Z,1.20
2019-03-17T10:34:51.506Z,1.20
2019-03-17T10:37:36.175Z,1.40
2019-03-17T10:43:03.762Z,1.57
2019-03-17T10:48:36.872Z,1.45
2019-03-17T10:51:21.117Z,1.40
2019-03-17T10:54:07.010Z,1.50
2019-03-17T10:56:51.667Z,1.50
2019-03-17T10:59:36.329Z,1.50
2019-03-17T11:02:18.944Z,1.53
2019-03-17T11:05:01.559Z,1.40
2019-03-17T11:07:44.171Z,1.20
2019-03-17T11:10:28.831Z,1.43
2019-03-17T11:13:14.337Z,1.30
2019-03-17T11:15:57.300Z,1.30
2019-03-17T11:18:43.642Z,1.07
2019-03-17T11:21:27.072Z,0.90
2019-03-17T11:24:12.966Z,1.00
2019-03-17T11:32:47.021Z,1.80
2019-03-17T11:38:12.243Z,1.53
2019-03-17T11:50:14.672Z,1.17
2019-03-17T11:53:21.172Z,1.07
2019-03-17T12:04:25.542Z,1.10
2019-03-17T12:07:10.205Z,1.13
2019-03-17T12:09:56.118Z,1.20
2019-03-17T12:12:38.708Z,1.40
2019-03-17T12:15:23.621Z,0.77
2019-03-17T12:20:48.605Z,0.87
2019-03-17T12:23:32.438Z,1.00
2019-03-17T12:26:15.872Z,0.97
2019-03-17T12:28:57.267Z,1.20
2019-03-17T12:31:41.103Z,1.37
2019-03-17T12:34:28.485Z,1.30
2019-03-17T12:37:11.253Z,1.47
2019-03-17T12:40:13.453Z,1.43
2019-03-17T12:42:48.953Z,1.80
2019-03-17T12:45:37.110Z,1.50
2019-03-17T12:48:20.951Z,1.40
2019-03-17T12:51:03.564Z,1.30
2019-03-17T12:53:48.234Z,1.30
2019-03-17T12:56:31.661Z,1.33
2019-03-17T12:59:18.710Z,1.10
2019-03-17T13:02:05.079Z,1.10
2019-03-17T13:04:47.691Z,1.20
2019-03-17T13:07:32.352Z,0.73
2019-03-17T13:10:17.012Z,1.20
2019-03-17T13:12:59.628Z,1.53
2019-03-17T13:15:45.929Z,1.30
2019-03-17T13:18:30.591Z,1.22
2019-03-17T13:21:14.437Z,1.27
2019-03-17T13:26:41.708Z,1.20
2019-03-17T13:29:26.374Z,1.10
2019-03-17T13:32:11.038Z,1.10
2019-03-17T13:37:37.079Z,1.40
2019-03-17T13:40:28.720Z,1.10
2019-03-17T13:46:04.174Z,1.30
2019-03-17T13:49:10.952Z,1.30
2019-03-17T13:51:37.595Z,1.17
2019-03-17T13:54:20.205Z,1.17
2019-03-17T13:57:04.018Z,0.90
2019-03-17T13:59:48.305Z,1.37
2019-03-17T14:02:32.976Z,1.00
2019-03-17T14:17:06.653Z,1.20
2019-03-17T14:20:21.634Z,1.20
2019-03-17T14:23:04.257Z,1.40
2019-03-17T14:25:47.120Z,1.93
2019-03-17T14:28:33.155Z,1.20
2019-03-17T14:31:17.810Z,1.27
2019-03-17T14:34:02.481Z,1.43
2019-03-17T14:37:17.451Z,1.20
2019-03-17T14:39:48.410Z,1.20
2019-03-17T14:42:30.798Z,1.20
2019-03-17T14:54:13.686Z,1.20
2019-03-17T14:59:38.908Z,0.80
2019-03-17T15:05:11.108Z,1.60
2019-03-17T15:07:55.763Z,1.17
2019-03-17T15:10:40.421Z,0.98
2019-03-17T15:13:23.041Z,1.00
2019-03-17T15:16:07.697Z,1.00
2019-03-17T15:18:52.360Z,1.17
2019-03-17T15:21:37.039Z,1.10
2019-03-17T15:24:30.698Z,1.10
2019-03-17T15:27:16.178Z,1.40
2019-03-17T15:30:00.020Z,1.27
2019-03-17T15:32:42.633Z,1.77
2019-03-17T15:35:25.255Z,1.03
2019-03-17T15:38:07.863Z,1.00
2019-03-17T15:40:50.476Z,1.00
2019-03-17T15:43:35.136Z,0.80
2019-03-17T15:46:20.942Z,1.00
2019-03-17T15:49:05.279Z,0.97
2019-03-17T15:51:49.939Z,1.20
2019-03-17T15:54:34.601Z,1.47
2019-03-17T15:57:17.215Z,1.50
2019-03-17T15:59:59.833Z,1.13
2019-03-17T16:02:42.450Z,1.20
2019-03-17T16:05:25.273Z,1.60
2019-03-17T16:10:48.233Z,1.20
2019-03-17T16:13:32.909Z,1.93
2019-03-17T16:19:20.257Z,2.33
2019-03-17T16:22:04.097Z,2.83
2019-03-17T16:24:49.799Z,1.60
2019-03-17T16:27:34.307Z,1.97
2019-03-17T16:30:34.867Z,1.70
2019-03-17T16:33:19.574Z,1.60
2019-03-17T16:36:06.503Z,1.70
2019-03-17T16:39:08.377Z,1.30
2019-03-17T16:41:43.232Z,1.40
2019-03-17T16:44:25.164Z,1.63
2019-03-17T16:47:10.620Z,1.60
2019-03-17T16:49:54.467Z,1.80
2019-03-17T16:52:37.079Z,1.70
2019-03-17T16:55:20.511Z,2.00
2019-03-17T16:58:05.170Z,1.70
2019-03-17T17:00:47.782Z,1.77
2019-03-17T17:03:32.453Z,1.50
2019-03-17T17:06:15.879Z,1.80
2019-03-17T17:09:01.770Z,1.60
2019-03-17T17:11:55.729Z,1.70
2019-03-17T17:14:31.092Z,1.50
2019-03-17T17:17:13.708Z,1.30
2019-03-17T17:19:56.321Z,1.47
2019-03-17T17:22:38.932Z,1.97
2019-03-17T17:25:21.548Z,4.27
2019-03-17T17:28:04.158Z,1.70
2019-03-17T17:30:48.410Z,1.50
2019-03-17T17:33:33.080Z,2.30
2019-03-17T17:36:16.932Z,1.83
2019-03-17T17:39:00.366Z,1.90
2019-03-17T17:41:44.490Z,1.57
2019-03-17T17:44:27.636Z,5.63
2019-03-17T17:47:10.661Z,1.90
2019-03-17T17:49:54.082Z,1.70
2019-03-17T17:55:43.473Z,0.90
2019-03-17T17:58:26.410Z,0.63
2019-03-17T18:01:09.524Z,0.97
2019-03-17T18:03:53.366Z,1.30
2019-03-17T18:09:20.643Z,0.70
2019-03-17T18:12:03.252Z,1.27
2019-03-17T18:14:45.866Z,1.10
2019-03-17T18:20:11.095Z,1.00
2019-03-17T18:22:53.710Z,1.00
2019-03-17T18:25:36.322Z,1.55
2019-03-17T18:33:51.957Z,2.03
2019-03-17T18:39:20.451Z,2.58
2019-03-17T18:42:03.065Z,2.33
2019-03-17T18:44:45.689Z,2.60
2019-03-17T18:47:28.545Z,1.70
2019-03-17T18:50:19.406Z,1.77
2019-03-17T18:52:55.570Z,2.20
2019-03-17T18:55:38.184Z,2.00
2019-03-17T18:58:20.865Z,1.90
2019-03-17T19:01:05.145Z,2.00
2019-03-17T19:03:47.671Z,2.10
2019-03-17T19:06:31.505Z,2.12
2019-03-17T19:09:16.489Z,2.30
2019-03-17T19:11:59.621Z,1.90
2019-03-17T19:14:45.496Z,2.37
2019-03-17T19:17:39.530Z,2.60
2019-03-17T19:20:21.775Z,2.30
2019-03-17T19:23:04.706Z,2.50
2019-03-17T19:25:51.122Z,2.23
2019-03-17T19:28:33.712Z,2.20
2019-03-17T19:34:01.201Z,2.90
2019-03-17T19:36:43.605Z,3.00
2019-03-17T19:39:26.422Z,2.50
2019-03-17T19:42:11.062Z,2.60
2019-03-17T19:44:54.666Z,3.10
2019-03-17T19:47:38.977Z,2.60
2019-03-17T19:50:21.588Z,2.50
2019-03-17T19:53:05.023Z,2.40
2019-03-17T19:55:51.212Z,2.60
2019-03-17T20:01:29.256Z,3.70
2019-03-17T20:04:35.925Z,3.23
2019-03-17T20:07:06.353Z,3.30
2019-03-17T20:09:52.552Z,2.90
2019-03-17T20:12:39.770Z,2.60
2019-03-17T20:18:28.617Z,3.27
2019-03-17T20:21:13.443Z,2.77
2019-03-17T20:23:59.939Z,3.03
2019-03-17T20:26:46.804Z,3.77
2019-03-17T20:29:29.872Z,3.73
2019-03-17T20:32:16.809Z,3.10
2019-03-17T20:35:02.912Z,3.07
2019-03-17T20:37:45.906Z,4.53
2019-03-17T20:40:29.691Z,4.20
2019-03-17T20:46:06.335Z,4.13
2019-03-17T20:48:51.101Z,4.27
2019-03-17T20:51:53.377Z,3.77
2019-03-17T20:57:08.355Z,3.53
2019-03-17T20:59:50.971Z,3.10
2019-03-17T21:02:33.799Z,3.27
2019-03-17T21:05:18.601Z,3.03
2019-03-17T21:08:03.724Z,3.30
2019-03-17T21:19:50.709Z,3.37
2019-03-17T21:22:38.645Z,2.85
2019-03-17T21:25:22.088Z,2.77
2019-03-17T21:34:00.230Z,2.80
2019-03-17T21:36:44.218Z,3.03
2019-03-17T21:45:09.532Z,2.60
2019-03-17T21:47:53.368Z,2.40
2019-03-17T21:53:43.995Z,2.43
2019-03-17T21:56:26.614Z,2.50
2019-03-17T21:59:09.218Z,1.97
2019-03-17T22:01:54.702Z,1.97
2019-03-17T22:04:37.318Z,2.20
2019-03-17T22:07:20.294Z,2.10
2019-03-17T22:10:03.369Z,1.97
2019-03-17T22:12:47.531Z,1.80
2019-03-17T22:18:12.434Z,1.73
2019-03-17T22:23:37.659Z,1.87
2019-03-17T22:26:20.318Z,1.70
2019-03-17T22:29:02.891Z,2.03
2019-03-17T22:31:45.534Z,1.90
2019-03-17T22:34:28.111Z,1.60
2019-03-17T22:37:10.725Z,1.87
2019-03-17T22:39:54.163Z,1.50
2019-03-17T22:42:38.003Z,1.90
2019-03-17T22:45:20.616Z,1.50
2019-03-17T22:48:03.229Z,1.70
2019-03-17T22:50:45.843Z,2.57
2019-03-17T22:53:28.459Z,2.70
2019-03-17T22:56:13.117Z,2.77
2019-03-17T22:58:55.733Z,3.13
2019-03-17T23:01:38.345Z,2.50
2019-03-17T23:04:22.074Z,2.60
2019-03-17T23:07:06.443Z,3.37
2019-03-17T23:15:59.751Z,2.30
2019-03-17T23:19:01.631Z,2.20
2019-03-17T23:24:59.209Z,1.97
2019-03-17T23:30:24.441Z,2.40
2019-03-17T23:35:49.678Z,2.50
2019-03-17T23:38:35.143Z,2.40
2019-03-17T23:41:19.805Z,2.23
2019-03-17T23:44:04.469Z,2.43
2019-03-17T23:46:47.080Z,2.63
2019-03-17T23:49:29.686Z,2.03
2019-03-17T23:52:12.302Z,2.40
2019-03-17T23:54:55.736Z,2.30
2019-03-17T23:57:39.580Z,2.37
